createdAt,value
2023-02-18T00:01:44.826Z,5.47
2023-02-18T00:04:13.362Z,4.85
2023-02-18T00:06:41.669Z,6.18
2023-02-18T00:09:09.802Z,5.45
2023-02-18T00:11:39.514Z,5.28
2023-02-18T00:14:13.631Z,4.72
2023-02-18T00:16:43.230Z,4.60
2023-02-18T00:19:16.580Z,4.10
2023-02-18T00:21:45.495Z,4.03
2023-02-18T00:24:16.905Z,2.92
2023-02-18T00:26:45.605Z,3.50
2023-02-18T00:29:15.330Z,3.05
2023-02-18T00:31:44.091Z,2.45
2023-02-18T00:34:13.945Z,2.90
2023-02-18T00:36:43.305Z,2.80
2023-02-18T00:39:13.563Z,2.63
2023-02-18T00:41:42.720Z,3.10
2023-02-18T00:44:11.496Z,2.13
2023-02-18T00:46:42.035Z,2.20
2023-02-18T00:49:11.041Z,2.13
2023-02-18T00:51:39.897Z,2.15
2023-02-18T00:54:08.036Z,1.90
2023-02-18T00:56:36.551Z,1.35
2023-02-18T00:59:05.114Z,1.95
2023-02-18T01:01:33.688Z,1.73
2023-02-18T01:04:03.445Z,2.10
2023-02-18T01:06:31.614Z,2.33
2023-02-18T01:08:59.814Z,1.75
2023-02-18T01:11:28.040Z,2.47
2023-02-18T01:13:56.266Z,2.28
2023-02-18T01:16:25.064Z,2.60
2023-02-18T01:18:53.328Z,1.83
2023-02-18T01:21:23.205Z,2.58
2023-02-18T01:23:51.580Z,1.63
2023-02-18T01:26:20.097Z,1.80
2023-02-18T01:28:48.232Z,2.13
2023-02-18T01:31:17.166Z,2.20
2023-02-18T01:33:45.544Z,1.95
2023-02-18T01:36:14.657Z,2.05
2023-02-18T01:38:44.317Z,1.80
2023-02-18T01:41:12.945Z,1.83
2023-02-18T01:43:41.573Z,2.20
2023-02-18T01:46:18.260Z,2.10
2023-02-18T01:48:54.604Z,2.72
2023-02-18T01:51:28.156Z,3.08
2023-02-18T01:54:02.931Z,2.95
2023-02-18T01:56:45.486Z,3.22
2023-02-18T01:59:22.900Z,2.85
2023-02-18T02:01:51.925Z,2.42
2023-02-18T02:04:21.405Z,1.42
2023-02-18T02:06:49.883Z,1.85
2023-02-18T02:09:24.153Z,1.88
2023-02-18T02:12:22.143Z,2.60
2023-02-18T02:15:13.959Z,2.25
2023-02-18T02:17:59.152Z,3.30
2023-02-18T02:21:18.533Z,2.53
2023-02-18T02:24:30.878Z,3.13
2023-02-18T02:27:15.546Z,2.10
2023-02-18T02:30:47.689Z,3.50
2023-02-18T02:34:00.557Z,3.97
2023-02-18T02:36:41.161Z,2.67
2023-02-18T02:39:21.099Z,3.28
2023-02-18T02:42:05.087Z,3.17
2023-02-18T02:44:41.624Z,2.80
2023-02-18T02:47:20.194Z,2.92
2023-02-18T02:50:02.268Z,3.75
2023-02-18T02:52:36.954Z,2.90
2023-02-18T02:55:09.842Z,3.45
2023-02-18T02:57:52.683Z,2.92
2023-02-18T03:00:27.952Z,2.63
2023-02-18T03:03:50.833Z,2.47
2023-02-18T03:06:52.100Z,2.55
2023-02-18T03:09:33.973Z,2.70
2023-02-18T03:12:11.236Z,2.95
2023-02-18T03:14:54.569Z,2.78
2023-02-18T03:17:29.526Z,2.75
2023-02-18T03:20:09.376Z,3.67
2023-02-18T03:22:46.136Z,3.15
2023-02-18T03:25:18.354Z,2.92
2023-02-18T03:27:55.890Z,2.90
2023-02-18T03:30:29.961Z,3.08
2023-02-18T03:33:07.085Z,3.05
2023-02-18T03:35:40.074Z,2.72
2023-02-18T03:38:20.135Z,3.40
2023-02-18T03:40:55.034Z,3.63
2023-02-18T03:43:25.267Z,3.75
2023-02-18T03:45:53.900Z,4.13
2023-02-18T03:48:22.605Z,3.42
2023-02-18T03:50:51.096Z,3.28
2023-02-18T03:53:19.838Z,3.20
2023-02-18T03:55:53.453Z,3.30
2023-02-18T03:58:22.800Z,3.72
2023-02-18T04:00:53.967Z,3.15
2023-02-18T04:03:25.673Z,2.90
2023-02-18T04:05:56.381Z,3.55
2023-02-18T04:08:25.385Z,3.67
2023-02-18T04:13:49.646Z,2.90
2023-02-18T04:16:20.887Z,3.58
2023-02-18T04:18:49.081Z,2.97
2023-02-18T04:21:17.155Z,3.20
2023-02-18T04:23:45.305Z,3.13
2023-02-18T04:26:14.995Z,3.03
2023-02-18T04:28:43.030Z,3.45
2023-02-18T04:31:11.732Z,2.65
2023-02-18T04:33:39.851Z,2.63
2023-02-18T04:36:09.551Z,3.08
2023-02-18T04:38:37.903Z,3.47
2023-02-18T04:41:06.862Z,3.13
2023-02-18T04:43:36.480Z,3.10
2023-02-18T04:46:04.865Z,3.20
2023-02-18T04:48:33.050Z,2.75
2023-02-18T04:51:01.107Z,2.88
2023-02-18T04:53:29.201Z,3.38
2023-02-18T04:55:57.262Z,3.58
2023-02-18T04:58:25.293Z,3.13
2023-02-18T05:00:56.205Z,2.83
2023-02-18T05:03:24.376Z,3.95
2023-02-18T05:05:52.449Z,3.08
2023-02-18T05:08:20.591Z,3.00
2023-02-18T05:10:48.725Z,2.95
2023-02-18T05:13:17.271Z,3.53
2023-02-18T05:15:45.428Z,3.25
2023-02-18T05:18:14.938Z,3.25
2023-02-18T05:20:43.039Z,3.00
2023-02-18T05:23:11.086Z,3.35
2023-02-18T05:25:39.126Z,3.10
2023-02-18T05:28:07.222Z,3.15
2023-02-18T05:30:35.417Z,3.25
2023-02-18T05:33:03.492Z,3.08
2023-02-18T05:35:32.985Z,2.92
2023-02-18T05:38:01.053Z,3.42
2023-02-18T05:40:29.296Z,3.58
2023-02-18T05:42:57.405Z,3.05
2023-02-18T05:45:25.531Z,4.97
2023-02-18T05:47:53.610Z,3.50
2023-02-18T05:50:22.043Z,3.80
2023-02-18T05:52:51.477Z,4.00
2023-02-18T05:55:19.984Z,3.60
2023-02-18T05:57:48.055Z,3.50
2023-02-18T06:00:17.036Z,3.97
2023-02-18T06:02:45.582Z,4.15
2023-02-18T06:05:13.740Z,3.50
2023-02-18T06:07:42.066Z,3.83
2023-02-18T06:10:12.108Z,4.13
2023-02-18T06:12:40.107Z,3.17
2023-02-18T06:15:09.216Z,3.80
2023-02-18T06:17:37.645Z,3.60
2023-02-18T06:20:06.964Z,2.65
2023-02-18T06:22:35.011Z,3.50
2023-02-18T06:25:03.104Z,2.85
2023-02-18T06:27:32.507Z,2.70
2023-02-18T06:30:00.882Z,2.92
2023-02-18T06:32:29.139Z,2.42
2023-02-18T06:34:57.218Z,2.20
2023-02-18T06:37:25.556Z,3.30
2023-02-18T06:39:53.885Z,2.10
2023-02-18T06:42:22.304Z,1.73
2023-02-18T06:44:51.678Z,2.40
2023-02-18T06:47:19.697Z,2.08
2023-02-18T06:49:47.775Z,2.53
2023-02-18T06:52:15.956Z,1.90
2023-02-18T06:54:44.132Z,1.90
2023-02-18T06:57:12.213Z,2.03
2023-02-18T06:59:40.245Z,1.63
2023-02-18T07:02:11.923Z,1.58
2023-02-18T07:04:39.986Z,2.17
2023-02-18T07:07:08.044Z,1.88
2023-02-18T07:09:36.069Z,3.28
2023-02-18T07:12:04.765Z,2.05
2023-02-18T07:14:32.892Z,2.35
2023-02-18T07:17:00.988Z,2.28
2023-02-18T07:19:30.421Z,1.85
2023-02-18T07:21:58.439Z,2.30
2023-02-18T07:24:26.434Z,2.17
2023-02-18T07:26:54.504Z,1.45
2023-02-18T07:29:22.605Z,2.00
2023-02-18T07:31:50.777Z,1.75
2023-02-18T07:34:18.985Z,1.83
2023-02-18T07:36:48.728Z,1.98
2023-02-18T07:39:20.655Z,2.10
2023-02-18T07:41:49.091Z,2.30
2023-02-18T07:44:17.149Z,2.20
2023-02-18T07:46:47.364Z,2.03
2023-02-18T07:49:16.433Z,2.17
2023-02-18T07:51:44.429Z,1.92
2023-02-18T07:54:13.801Z,2.40
2023-02-18T07:56:43.017Z,1.50
2023-02-18T07:59:12.128Z,2.13
2023-02-18T08:01:40.272Z,1.95
2023-02-18T08:04:08.812Z,1.83
2023-02-18T08:06:40.224Z,1.85
2023-02-18T08:09:08.851Z,1.95
2023-02-18T08:11:39.281Z,1.98
2023-02-18T08:14:08.025Z,1.63
2023-02-18T08:16:37.058Z,1.58
2023-02-18T08:19:05.724Z,1.60
2023-02-18T08:21:33.794Z,1.95
2023-02-18T08:24:01.824Z,1.83
2023-02-18T08:26:30.511Z,1.15
2023-02-18T08:28:59.974Z,1.23
2023-02-18T08:31:31.585Z,1.45
2023-02-18T08:34:01.548Z,1.50
2023-02-18T08:36:30.876Z,1.55
2023-02-18T08:38:59.666Z,0.88
2023-02-18T08:41:27.741Z,1.00
2023-02-18T08:43:55.721Z,1.02
2023-02-18T08:46:33.801Z,1.30
2023-02-18T08:49:04.645Z,0.88
2023-02-18T08:51:32.751Z,0.60
2023-02-18T08:54:00.845Z,0.80
2023-02-18T08:56:29.164Z,1.40
2023-02-18T08:58:57.160Z,0.95
2023-02-18T09:01:26.835Z,1.17
2023-02-18T09:03:54.880Z,1.45
2023-02-18T09:06:23.002Z,1.10
2023-02-18T09:08:51.640Z,0.90
2023-02-18T09:11:20.687Z,1.30
2023-02-18T09:13:48.819Z,0.90
2023-02-18T09:16:19.762Z,1.67
2023-02-18T09:18:50.205Z,1.75
2023-02-18T09:21:20.756Z,1.40
2023-02-18T09:23:49.139Z,1.00
2023-02-18T09:26:21.408Z,1.00
2023-02-18T09:28:50.185Z,1.33
2023-02-18T09:31:20.775Z,1.00
2023-02-18T09:33:53.596Z,1.00
2023-02-18T09:36:22.112Z,1.30
2023-02-18T09:38:50.491Z,1.20
2023-02-18T09:41:35.941Z,1.73
2023-02-18T09:44:10.592Z,1.50
2023-02-18T09:46:45.458Z,1.15
2023-02-18T09:49:20.820Z,1.42
2023-02-18T09:51:49.158Z,1.17
2023-02-18T09:54:20.918Z,1.67
2023-02-18T09:56:51.016Z,1.88
2023-02-18T09:59:23.263Z,1.45
2023-02-18T10:01:54.460Z,1.80
2023-02-18T10:04:30.782Z,1.42
2023-02-18T10:07:02.141Z,1.10
2023-02-18T10:09:35.522Z,1.50
2023-02-18T10:12:15.516Z,0.98
2023-02-18T10:14:47.923Z,1.55
2023-02-18T10:17:18.581Z,2.10
2023-02-18T10:19:51.493Z,1.10
2023-02-18T10:22:21.753Z,1.52
2023-02-18T10:24:54.986Z,1.88
2023-02-18T10:27:28.671Z,0.70
2023-02-18T10:30:21.685Z,1.02
2023-02-18T10:32:56.098Z,0.88
2023-02-18T10:35:32.285Z,0.65
2023-02-18T10:38:16.714Z,1.30
2023-02-18T10:41:01.962Z,1.67
2023-02-18T10:43:43.735Z,1.38
2023-02-18T10:46:29.212Z,1.80
2023-02-18T10:49:26.595Z,1.33
2023-02-18T10:52:00.289Z,0.90
2023-02-18T10:54:50.621Z,0.50
2023-02-18T10:57:22.485Z,1.00
2023-02-18T11:00:11.749Z,0.82
2023-02-18T11:02:41.160Z,0.82
2023-02-18T11:05:25.022Z,0.70
2023-02-18T11:07:59.246Z,1.05
2023-02-18T11:10:33.474Z,1.63
2023-02-18T11:13:05.112Z,1.40
2023-02-18T11:15:34.270Z,0.95
2023-02-18T11:18:15.936Z,0.88
2023-02-18T11:20:57.828Z,0.90
2023-02-18T11:23:28.237Z,1.45
2023-02-18T11:26:05.491Z,1.15
2023-02-18T11:28:44.210Z,0.90
2023-02-18T11:31:24.080Z,0.77
2023-02-18T11:33:57.551Z,1.13
2023-02-18T11:36:29.977Z,1.75
2023-02-18T11:39:04.466Z,1.35
2023-02-18T11:41:38.802Z,1.23
2023-02-18T11:44:19.518Z,1.20
2023-02-18T11:47:01.117Z,1.55
2023-02-18T11:49:30.968Z,1.20
2023-02-18T11:52:18.184Z,0.68
2023-02-18T11:55:02.831Z,1.05
2023-02-18T11:57:32.361Z,2.55
2023-02-18T12:00:01.946Z,1.00
2023-02-18T12:02:39.955Z,1.10
2023-02-18T12:05:17.239Z,1.10
2023-02-18T12:07:49.246Z,1.45
2023-02-18T12:10:27.745Z,0.57
2023-02-18T12:13:03.370Z,1.10
2023-02-18T12:15:50.285Z,1.10
2023-02-18T12:19:02.702Z,1.27
2023-02-18T12:21:43.949Z,1.00
2023-02-18T12:24:30.854Z,1.83
2023-02-18T12:27:14.427Z,1.15
2023-02-18T12:30:23.908Z,1.45
2023-02-18T12:33:06.370Z,0.88
2023-02-18T12:35:50.195Z,1.05
2023-02-18T12:39:01.823Z,1.48
2023-02-18T12:42:20.161Z,0.63
2023-02-18T12:45:16.944Z,0.90
2023-02-18T12:48:20.624Z,0.98
2023-02-18T12:51:11.430Z,1.10
2023-02-18T12:54:14.765Z,1.83
2023-02-18T12:57:01.820Z,0.82
2023-02-18T13:00:05.178Z,0.85
2023-02-18T13:03:07.809Z,0.75
2023-02-18T13:05:47.168Z,0.90
2023-02-18T13:08:37.732Z,1.48
2023-02-18T13:11:34.317Z,1.83
2023-02-18T13:14:10.004Z,1.33
2023-02-18T13:16:42.514Z,0.90
2023-02-18T13:19:22.817Z,0.98
2023-02-18T13:21:54.716Z,1.27
2023-02-18T13:24:34.118Z,0.82
2023-02-18T13:27:16.293Z,1.63
2023-02-18T13:29:57.423Z,1.48
2023-02-18T13:32:38.543Z,1.27
2023-02-18T13:35:20.657Z,0.93
2023-02-18T13:38:03.815Z,2.28
2023-02-18T13:40:33.770Z,1.38
2023-02-18T13:43:31.344Z,1.40
2023-02-18T13:46:22.255Z,0.82
2023-02-18T13:48:54.811Z,1.20
2023-02-18T13:51:33.480Z,1.30
2023-02-18T13:54:12.062Z,1.02
2023-02-18T13:56:46.351Z,1.10
2023-02-18T13:59:23.181Z,1.17
2023-02-18T14:01:53.626Z,1.45
2023-02-18T14:04:55.078Z,1.30
2023-02-18T14:07:46.844Z,1.48
2023-02-18T14:10:34.580Z,1.40
2023-02-18T14:13:34.213Z,1.25
2023-02-18T14:16:02.485Z,1.20
2023-02-18T14:19:01.208Z,1.42
2023-02-18T14:21:45.051Z,1.65
2023-02-18T14:24:14.460Z,1.38
2023-02-18T14:26:47.813Z,1.45
2023-02-18T14:29:28.936Z,1.20
2023-02-18T14:32:04.286Z,1.13
2023-02-18T14:35:03.603Z,1.60
2023-02-18T14:38:14.240Z,1.58
2023-02-18T14:41:30.189Z,0.98
2023-02-18T14:44:21.100Z,1.60
2023-02-18T14:47:11.173Z,1.27
2023-02-18T14:49:44.541Z,1.35
2023-02-18T14:52:29.869Z,0.80
2023-02-18T14:55:02.496Z,2.38
2023-02-18T14:57:40.958Z,1.02
2023-02-18T15:00:18.510Z,1.30
2023-02-18T15:02:51.380Z,1.70
2023-02-18T15:05:23.573Z,1.10
2023-02-18T15:08:01.311Z,1.75
2023-02-18T15:10:40.831Z,1.05
2023-02-18T15:13:18.022Z,0.90
2023-02-18T15:15:49.947Z,0.95
2023-02-18T15:18:31.078Z,2.40
2023-02-18T15:21:02.120Z,1.60
2023-02-18T15:23:32.288Z,1.98
2023-02-18T15:26:01.739Z,1.60
2023-02-18T15:28:32.728Z,2.40
2023-02-18T15:31:04.867Z,1.85
2023-02-18T15:33:33.026Z,3.05
2023-02-18T15:36:05.754Z,2.13
2023-02-18T15:38:34.705Z,1.80
2023-02-18T15:41:05.077Z,2.17
2023-02-18T15:43:35.094Z,2.05
2023-02-18T15:46:15.605Z,2.20
2023-02-18T15:48:48.896Z,2.38
2023-02-18T15:51:28.632Z,3.42
2023-02-18T15:54:00.963Z,2.65
2023-02-18T15:56:37.547Z,2.92
2023-02-18T15:59:16.708Z,2.63
2023-02-18T16:01:51.112Z,2.05
2023-02-18T16:04:21.186Z,4.93
2023-02-18T16:06:53.367Z,2.22
2023-02-18T16:09:27.417Z,2.70
2023-02-18T16:12:02.046Z,2.78
2023-02-18T16:14:35.251Z,2.92
2023-02-18T16:17:17.463Z,3.20
2023-02-18T16:20:03.859Z,2.20
2023-02-18T16:25:22.949Z,2.40
2023-02-18T16:27:56.288Z,3.03
2023-02-18T16:30:27.759Z,3.38
2023-02-18T16:32:57.966Z,3.17
2023-02-18T16:35:32.795Z,3.30
2023-02-18T16:38:06.821Z,3.50
2023-02-18T16:40:38.149Z,3.42
2023-02-18T16:43:15.448Z,2.60
2023-02-18T16:45:49.506Z,2.85
2023-02-18T16:48:25.257Z,2.80
2023-02-18T16:50:54.139Z,2.55
2023-02-18T16:53:22.680Z,3.30
2023-02-18T16:55:51.764Z,3.35
2023-02-18T16:58:21.151Z,3.03
2023-02-18T17:00:53.126Z,3.40
2023-02-18T17:03:22.072Z,2.85
2023-02-18T17:05:50.152Z,3.78
2023-02-18T17:08:23.116Z,2.88
2023-02-18T17:10:54.178Z,3.10
2023-02-18T17:13:26.720Z,4.32
2023-02-18T17:15:58.626Z,3.38
2023-02-18T17:18:27.666Z,3.20
2023-02-18T17:20:57.156Z,3.38
2023-02-18T17:23:25.968Z,3.58
2023-02-18T17:25:54.680Z,3.15
2023-02-18T17:28:24.057Z,3.80
2023-02-18T17:30:57.694Z,3.15
2023-02-18T17:33:26.807Z,3.38
2023-02-18T17:35:55.001Z,3.63
2023-02-18T17:38:23.719Z,3.38
2023-02-18T17:40:51.804Z,3.72
2023-02-18T17:43:20.051Z,2.78
2023-02-18T17:45:53.716Z,3.13
2023-02-18T17:48:22.743Z,3.17
2023-02-18T17:50:51.204Z,3.90
2023-02-18T17:53:19.904Z,3.60
2023-02-18T17:55:51.065Z,3.25
2023-02-18T17:58:19.872Z,3.50
2023-02-18T18:00:52.363Z,4.60
2023-02-18T18:03:22.452Z,3.67
2023-02-18T18:05:55.434Z,3.55
2023-02-18T18:08:23.536Z,3.80
2023-02-18T18:10:55.702Z,3.95
2023-02-18T18:13:27.332Z,3.58
2023-02-18T18:15:58.118Z,3.25
2023-02-18T18:18:26.884Z,3.50
2023-02-18T18:20:59.238Z,2.80
2023-02-18T18:23:28.605Z,3.88
2023-02-18T18:25:58.889Z,3.22
2023-02-18T18:28:28.570Z,3.25
2023-02-18T18:30:59.174Z,2.85
2023-02-18T18:33:31.158Z,2.88
2023-02-18T18:36:01.183Z,3.70
2023-02-18T18:38:30.816Z,3.05
2023-02-18T18:40:58.914Z,3.60
2023-02-18T18:43:32.585Z,3.60
2023-02-18T18:46:02.540Z,2.45
2023-02-18T18:48:30.602Z,3.47
2023-02-18T18:51:01.470Z,2.60
2023-02-18T18:53:31.446Z,3.65
2023-02-18T18:56:02.484Z,2.80
2023-02-18T18:58:31.587Z,3.30
2023-02-18T19:01:05.237Z,3.45
2023-02-18T19:03:35.518Z,4.60
2023-02-18T19:06:03.580Z,3.15
2023-02-18T19:08:32.365Z,2.78
2023-02-18T19:11:00.415Z,3.38
2023-02-18T19:13:32.006Z,3.95
2023-02-18T19:16:08.625Z,3.95
2023-02-18T19:18:36.677Z,2.85
2023-02-18T19:21:05.663Z,2.90
2023-02-18T19:23:34.251Z,3.80
2023-02-18T19:26:02.567Z,2.75
2023-02-18T19:28:31.012Z,4.32
2023-02-18T19:30:59.162Z,3.17
2023-02-18T19:33:28.970Z,3.65
2023-02-18T19:35:57.088Z,4.25
2023-02-18T19:38:25.222Z,2.58
2023-02-18T19:40:54.100Z,2.92
2023-02-18T19:43:22.427Z,2.70
2023-02-18T19:45:51.739Z,2.83
2023-02-18T19:48:20.857Z,3.00
2023-02-18T19:50:50.498Z,2.90
2023-02-18T19:53:18.688Z,3.40
2023-02-18T19:55:46.917Z,3.30
2023-02-18T19:58:15.110Z,2.97
2023-02-18T20:00:43.732Z,2.97
2023-02-18T20:03:11.833Z,3.25
2023-02-18T20:05:39.933Z,2.58
2023-02-18T20:08:09.565Z,3.30
2023-02-18T20:10:38.249Z,3.17
2023-02-18T20:13:11.249Z,3.90
2023-02-18T20:15:41.193Z,1.95
2023-02-18T20:18:09.594Z,2.72
2023-02-18T20:20:37.817Z,2.47
2023-02-18T20:23:06.225Z,3.10
2023-02-18T20:25:35.823Z,2.40
2023-02-18T20:28:03.839Z,2.50
2023-02-18T20:30:32.113Z,3.30
2023-02-18T20:33:00.325Z,2.95
2023-02-18T20:35:28.507Z,2.78
2023-02-18T20:37:56.689Z,2.78
2023-02-18T20:40:24.957Z,2.55
2023-02-18T20:42:54.729Z,3.03
2023-02-18T20:45:24.406Z,3.20
2023-02-18T20:47:52.725Z,3.72
2023-02-18T20:50:21.739Z,2.92
2023-02-18T20:52:49.866Z,3.22
2023-02-18T20:55:19.223Z,2.65
2023-02-18T20:57:47.404Z,2.88
2023-02-18T21:00:18.387Z,2.70
2023-02-18T21:02:46.429Z,3.08
2023-02-18T21:05:14.517Z,2.83
2023-02-18T21:07:42.760Z,3.65
2023-02-18T21:10:10.978Z,2.22
2023-02-18T21:12:39.034Z,2.95
2023-02-18T21:15:07.807Z,3.17
2023-02-18T21:17:37.244Z,2.88
2023-02-18T21:20:07.038Z,3.03
2023-02-18T21:22:35.464Z,3.05
2023-02-18T21:25:06.579Z,2.90
2023-02-18T21:27:37.179Z,3.15
2023-02-18T21:30:09.093Z,3.20
2023-02-18T21:32:38.698Z,4.00
2023-02-18T21:35:07.955Z,3.13
2023-02-18T21:37:36.653Z,3.35
2023-02-18T21:40:05.181Z,3.25
2023-02-18T21:42:34.646Z,3.70
2023-02-18T21:45:02.977Z,3.97
2023-02-18T21:47:33.916Z,3.10
2023-02-18T21:50:03.292Z,3.33
2023-02-18T21:52:32.562Z,3.50
2023-02-18T21:55:00.593Z,4.45
2023-02-18T21:57:28.806Z,2.33
2023-02-18T21:59:56.768Z,3.83
2023-02-18T22:02:27.746Z,3.58
2023-02-18T22:04:58.348Z,2.90
2023-02-18T22:07:28.852Z,3.10
2023-02-18T22:09:57.528Z,3.20
2023-02-18T22:12:26.338Z,2.85
2023-02-18T22:14:54.420Z,3.25
2023-02-18T22:17:22.667Z,3.15
2023-02-18T22:19:50.830Z,2.85
2023-02-18T22:22:19.117Z,2.97
2023-02-18T22:24:48.483Z,3.30
2023-02-18T22:27:16.459Z,2.80
2023-02-18T22:29:44.676Z,2.40
2023-02-18T22:32:12.882Z,2.42
2023-02-18T22:34:41.199Z,2.40
2023-02-18T22:37:09.292Z,2.78
2023-02-18T22:39:37.337Z,2.97
2023-02-18T22:42:06.968Z,2.45
2023-02-18T22:44:35.205Z,3.30
2023-02-18T22:47:03.423Z,3.05
2023-02-18T22:49:31.416Z,3.25
2023-02-18T22:51:59.381Z,2.50
2023-02-18T22:54:27.378Z,2.60
2023-02-18T22:56:55.599Z,3.70
2023-02-18T22:59:25.016Z,3.10
2023-02-18T23:01:53.479Z,3.53
2023-02-18T23:04:22.911Z,2.47
2023-02-18T23:06:52.134Z,3.75
2023-02-18T23:09:23.363Z,2.72
2023-02-18T23:11:53.566Z,2.63
2023-02-18T23:14:22.408Z,3.25
2023-02-18T23:17:13.755Z,3.22
2023-02-18T23:19:44.931Z,2.50
2023-02-18T23:22:16.816Z,2.63
2023-02-18T23:24:47.384Z,2.28
2023-02-18T23:27:18.777Z,2.40
2023-02-18T23:29:47.481Z,3.30
2023-02-18T23:32:16.936Z,3.47
2023-02-18T23:34:45.102Z,3.20
2023-02-18T23:37:16.513Z,2.72
2023-02-18T23:39:47.336Z,2.88
2023-02-18T23:42:15.568Z,3.17
2023-02-18T23:44:45.985Z,2.90
2023-02-18T23:47:15.379Z,3.33
2023-02-18T23:49:58.020Z,4.20
2023-02-18T23:52:26.153Z,3.03
2023-02-18T23:54:54.490Z,3.83
2023-02-18T23:57:22.763Z,4.75
2023-02-18T23:59:51.302Z,3.05
